Time;durP1;ratioP1;P1;durP2;ratioP2;P2;SDS_P1;SDS_P2;PMS_P1;PMS_P2;Temp;Humidity;BMP_temperature;BMP_pressure;BME280_temperature;BME280_humidity;BME280_pressure;Samples;Min_cycle;Max_cycle;Signal;HPM_P1;HPM_P2
2022/09/28 00:01:43;;;;;;;7.10;3.20;;;;;;;10.10;51.69;99640.69;7390950;19;20331;-57
2022/09/28 00:04:10;;;;;;;6.80;3.35;;;;;;;10.07;51.76;99630.53;7393043;19;20003;-57
2022/09/28 00:06:35;;;;;;;6.28;3.42;;;;;;;9.95;51.57;99635.03;7393666;19;20002;-58
2022/09/28 00:09:01;;;;;;;7.82;3.60;;;;;;;9.95;51.93;99632.31;7392506;19;19998;-58
2022/09/28 00:11:27;;;;;;;8.43;3.40;;;;;;;9.86;52.02;99641.91;7393207;19;20026;-57
2022/09/28 00:13:56;;;;;;;8.50;3.30;;;;;;;9.82;51.98;99622.75;7392331;19;20022;-57
2022/09/28 00:16:27;;;;;;;8.20;3.35;;;;;;;9.87;52.18;99633.34;7395542;19;20007;-57
2022/09/28 00:18:54;;;;;;;8.45;3.22;;;;;;;9.80;52.19;99631.31;7393168;19;20030;-57
2022/09/28 00:21:25;;;;;;;6.18;3.58;;;;;;;9.67;52.20;99627.19;7391051;19;20010;-57
2022/09/28 00:24:11;;;;;;;6.13;3.72;;;;;;;9.66;52.26;99624.81;7393915;19;20046;-57
2022/09/28 00:26:39;;;;;;;6.88;3.63;;;;;;;9.67;52.30;99623.66;7395322;19;20006;-57
2022/09/28 00:29:06;;;;;;;7.03;3.00;;;;;;;9.79;52.15;99628.94;7394545;19;20009;-57
2022/09/28 00:31:34;;;;;;;7.43;3.30;;;;;;;9.87;51.71;99627.91;7392373;19;20010;-57
2022/09/28 00:34:01;;;;;;;5.68;3.15;;;;;;;9.96;51.66;99620.25;7393626;19;20011;-57
2022/09/28 00:36:29;;;;;;;5.90;3.38;;;;;;;10.01;51.26;99619.16;7394081;19;20042;-57
2022/09/28 00:38:56;;;;;;;8.07;3.50;;;;;;;10.01;51.43;99622.66;7393201;19;20021;-57
2022/09/28 00:41:23;;;;;;;7.35;3.53;;;;;;;9.98;51.51;99612.50;7392074;19;20011;-58
2022/09/28 00:43:49;;;;;;;7.35;3.58;;;;;;;9.81;51.81;99608.31;7395795;19;20032;-57
2022/09/28 00:46:22;;;;;;;6.72;3.30;;;;;;;9.80;51.93;99611.41;7400626;19;20362;-57
2022/09/28 00:49:02;;;;;;;6.80;3.42;;;;;;;9.85;51.84;99602.97;7402101;19;20034;-57
2022/09/28 00:51:29;;;;;;;7.57;3.88;;;;;;;9.77;51.99;99606.72;7396593;19;20078;-57
2022/09/28 00:53:55;;;;;;;8.02;3.60;;;;;;;9.82;51.84;99603.69;7401314;19;20003;-57
2022/09/28 00:56:25;;;;;;;11.05;4.03;;;;;;;9.95;51.63;99604.25;7400405;19;20497;-57
2022/09/28 00:58:53;;;;;;;7.85;3.90;;;;;;;9.83;52.02;99605.25;7397689;19;20003;-57
2022/09/28 01:01:26;;;;;;;8.55;4.28;;;;;;;9.95;51.78;99601.53;7399315;19;20478;-57
2022/09/28 01:03:53;;;;;;;8.65;3.90;;;;;;;9.98;51.54;99603.53;7400942;19;20018;-57
2022/09/28 01:06:26;;;;;;;8.43;3.95;;;;;;;9.90;51.73;99602.66;7399038;19;20010;-57
2022/09/28 01:08:57;;;;;;;9.45;4.10;;;;;;;9.93;51.67;99592.94;7398821;19;20070;-58
2022/09/28 01:11:24;;;;;;;8.48;4.03;;;;;;;9.96;51.68;99592.22;7398352;19;20006;-57
2022/09/28 01:13:54;;;;;;;7.47;3.45;;;;;;;10.01;51.36;99581.78;7397981;19;20097;-57
2022/09/28 01:16:29;;;;;;;6.78;3.50;;;;;;;10.06;51.26;99585.34;7398092;19;20023;-57
2022/09/28 01:19:32;;;;;;;8.48;3.75;;;;;;;9.98;51.52;99579.00;7398767;19;20077;-57
2022/09/28 01:22:18;;;;;;;8.85;4.18;;;;;;;10.05;51.30;99584.56;7396701;19;20009;-57
2022/09/28 01:24:45;;;;;;;12.00;3.65;;;;;;;10.02;51.35;99579.84;7400292;19;20013;-57
2022/09/28 01:27:13;;;;;;;6.90;3.58;;;;;;;10.07;51.21;99582.25;7399577;19;20031;-57
2022/09/28 01:30:02;;;;;;;7.95;3.80;;;;;;;9.83;51.64;99580.72;7400666;19;20071;-58
2022/09/28 01:32:47;;;;;;;11.73;4.25;;;;;;;9.94;51.46;99576.22;7398665;19;20013;-57
2022/09/28 01:35:25;;;;;;;7.60;3.80;;;;;;;9.97;51.32;99583.66;7399752;19;20032;-57
2022/09/28 01:38:16;;;;;;;8.93;4.15;;;;;;;9.99;51.50;99581.34;7397022;19;20013;-58
2022/09/28 01:40:43;;;;;;;8.93;4.03;;;;;;;9.93;51.54;99579.31;7398146;19;20091;-57
2022/09/28 01:43:15;;;;;;;8.27;4.30;;;;;;;9.95;51.49;99574.28;7399155;19;20018;-57
2022/09/28 01:45:45;;;;;;;9.52;4.25;;;;;;;9.93;51.39;99577.38;7397622;19;20021;-57
2022/09/28 01:48:18;;;;;;;7.88;4.65;;;;;;;9.98;50.96;99568.91;7398737;19;20010;-57
2022/09/28 01:50:48;;;;;;;10.35;4.78;;;;;;;9.74;51.80;99574.75;7398048;19;20389;-57
2022/09/28 01:53:27;;;;;;;10.25;4.35;;;;;;;9.92;51.39;99567.63;7398066;19;19999;-57
2022/09/28 01:56:00;;;;;;;9.95;4.90;;;;;;;10.04;51.16;99569.34;7396628;19;20027;-57
2022/09/28 01:58:25;;;;;;;11.10;5.10;;;;;;;9.91;51.36;99570.72;7398305;19;20009;-58
2022/09/28 02:00:58;;;;;;;10.65;5.38;;;;;;;9.92;51.49;99573.09;7395745;19;20007;-58
2022/09/28 02:03:37;;;;;;;10.87;5.30;;;;;;;9.98;50.84;99563.44;7399502;19;20002;-57
2022/09/28 02:06:18;;;;;;;9.95;4.93;;;;;;;9.54;52.04;99574.78;7397354;19;20043;-58
2022/09/28 02:08:50;;;;;;;10.20;5.10;;;;;;;9.56;52.38;99555.34;7396934;19;20006;-57
2022/09/28 02:11:19;;;;;;;7.95;4.15;;;;;;;9.75;52.07;99559.94;7396048;19;20339;-57
2022/09/28 02:14:04;;;;;;;8.75;4.60;;;;;;;9.94;51.39;99545.47;7398508;19;20006;-58
2022/09/28 02:16:37;;;;;;;7.65;4.22;;;;;;;10.02;51.33;99552.59;7396813;19;20018;-57
2022/09/28 02:19:04;;;;;;;7.25;4.03;;;;;;;10.03;51.30;99553.38;7396676;19;20034;-57
2022/09/28 02:21:39;;;;;;;9.80;4.20;;;;;;;10.13;51.03;99553.50;7394100;19;20030;-57
2022/09/28 02:24:22;;;;;;;9.57;4.93;;;;;;;10.04;51.18;99552.22;7398899;19;20002;-57
2022/09/28 02:26:50;;;;;;;11.40;5.55;;;;;;;9.98;51.59;99552.53;7398354;19;20045;-58
2022/09/28 02:29:16;;;;;;;8.95;4.85;;;;;;;10.03;51.34;99551.41;7397932;19;20014;-57
2022/09/28 02:31:42;;;;;;;10.20;4.43;;;;;;;10.06;51.17;99555.38;7395875;19;20010;-57
2022/09/28 02:34:08;;;;;;;10.52;4.68;;;;;;;10.09;51.09;99560.88;7398492;19;20007;-57
2022/09/28 02:36:34;;;;;;;11.93;5.18;;;;;;;10.09;51.20;99555.41;7395369;19;20018;-57
2022/09/28 02:39:01;;;;;;;11.45;4.78;;;;;;;10.09;51.16;99551.91;7395722;19;20012;-57
2022/09/28 02:41:47;;;;;;;9.90;4.47;;;;;;;10.04;51.41;99554.94;7392738;19;20034;-58
2022/09/28 02:44:34;;;;;;;9.85;4.72;;;;;;;10.10;51.49;99558.91;7391500;19;20069;-58
2022/09/28 02:47:23;;;;;;;9.38;4.80;;;;;;;10.12;51.55;99556.63;7388213;19;20046;-57
2022/09/28 02:50:02;;;;;;;9.68;4.63;;;;;;;10.21;51.15;99553.63;7392044;19;20014;-58
2022/09/28 02:52:55;;;;;;;8.25;4.18;;;;;;;10.21;51.48;99554.41;7395835;19;20017;-58
2022/09/28 02:55:46;;;;;;;9.32;4.60;;;;;;;10.08;52.19;99558.50;7392435;19;20095;-57
2022/09/28 02:58:30;;;;;;;9.77;5.00;;;;;;;10.20;51.75;99555.53;7394351;19;20006;-58
2022/09/28 03:01:04;;;;;;;;;;;;;;;10.24;51.69;99559.13;7395754;19;20002;-58
2022/09/28 03:04:09;;;;;;;10.27;4.45;;;;;;;10.24;51.43;99559.13;7395792;19;19970;-58
2022/09/28 03:06:45;;;;;;;10.02;4.80;;;;;;;10.24;51.55;99561.84;7394547;19;20025;-58
2022/09/28 03:09:20;;;;;;;9.52;5.07;;;;;;;10.32;51.13;99555.34;7396282;19;20490;-58
2022/09/28 03:11:54;;;;;;;15.48;6.05;;;;;;;10.30;51.38;99554.91;7394655;19;20009;-58
2022/09/28 03:14:20;;;;;;;11.18;5.35;;;;;;;10.17;51.38;99559.03;7394953;19;20034;-58
2022/09/28 03:16:46;;;;;;;9.45;4.57;;;;;;;10.12;51.51;99562.84;7395517;19;20002;-58
2022/09/28 03:19:12;;;;;;;11.77;4.90;;;;;;;10.17;51.36;99564.47;7394619;19;20366;-58
2022/09/28 03:21:38;;;;;;;9.35;4.15;;;;;;;10.16;51.40;99560.94;7394836;19;20019;-58
2022/09/28 03:24:04;;;;;;;7.50;4.00;;;;;;;10.11;51.53;99560.50;7396347;19;20462;-57
2022/09/28 03:26:31;;;;;;;8.32;3.45;;;;;;;10.05;51.35;99567.41;7395674;19;20014;-58
2022/09/28 03:28:57;;;;;;;6.25;3.28;;;;;;;10.03;51.62;99558.81;7396288;19;20006;-58
2022/09/28 03:31:22;;;;;;;6.38;3.30;;;;;;;10.05;51.30;99560.03;7393558;19;20357;-58
2022/09/28 03:33:50;;;;;;;6.03;2.97;;;;;;;10.12;51.09;99564.81;7395583;19;20011;-58
2022/09/28 03:36:15;;;;;;;6.50;2.80;;;;;;;9.90;51.57;99566.41;7393572;19;20010;-58
2022/09/28 03:38:41;;;;;;;9.02;3.15;;;;;;;9.98;51.53;99566.16;7390376;19;20010;-58
2022/09/28 03:41:06;;;;;;;5.88;3.00;;;;;;;10.05;51.24;99561.97;7391146;19;20019;-57
2022/09/28 03:43:32;;;;;;;5.05;2.75;;;;;;;10.12;51.30;99556.63;7392579;19;20013;-57
2022/09/28 03:45:59;;;;;;;5.60;3.03;;;;;;;9.97;51.29;99555.63;7394619;19;20030;-56
2022/09/28 03:48:30;;;;;;;7.15;3.40;;;;;;;9.96;51.33;99552.09;7395039;19;20026;-56
2022/09/28 03:50:58;;;;;;;8.70;3.38;;;;;;;10.08;51.15;99559.28;7392966;19;20015;-56
2022/09/28 03:53:24;;;;;;;5.82;2.95;;;;;;;10.15;51.01;99561.31;7395668;19;20010;-56
2022/09/28 03:55:52;;;;;;;5.55;2.95;;;;;;;10.16;51.08;99550.03;7394999;19;20002;-56
2022/09/28 03:58:21;;;;;;;6.22;3.00;;;;;;;9.97;51.59;99550.97;7394037;19;20011;-56
2022/09/28 04:00:48;;;;;;;8.00;3.35;;;;;;;10.06;51.33;99550.69;7393892;19;20144;-56
2022/09/28 04:03:13;;;;;;;7.55;3.10;;;;;;;10.11;51.51;99549.59;7394608;19;20415;-57
2022/09/28 04:05:48;;;;;;;6.28;3.08;;;;;;;10.10;51.47;99548.00;7393702;19;20010;-57
2022/09/28 04:08:13;;;;;;;6.28;3.28;;;;;;;9.87;52.04;99546.13;7392773;19;20018;-57
2022/09/28 04:10:39;;;;;;;7.88;3.47;;;;;;;9.82;52.57;99555.41;7394321;19;20010;-56
2022/09/28 04:13:04;;;;;;;5.97;3.10;;;;;;;10.06;52.07;99547.19;7394634;19;20014;-57
2022/09/28 04:15:30;;;;;;;7.05;3.25;;;;;;;10.14;51.96;99546.91;7393387;19;20007;-57
2022/09/28 04:17:55;;;;;;;6.93;3.35;;;;;;;10.23;51.85;99543.91;7395320;19;20028;-57
2022/09/28 04:20:21;;;;;;;7.90;3.50;;;;;;;10.29;51.65;99549.84;7399150;19;20450;-57
2022/09/28 04:22:46;;;;;;;7.07;3.50;;;;;;;10.31;51.44;99552.97;7400837;19;20005;-56
2022/09/28 04:25:12;;;;;;;6.65;3.35;;;;;;;10.29;51.47;99550.63;7401398;19;20485;-56
2022/09/28 04:30:22;;;;;;;7.57;3.75;;;;;;;10.31;51.67;99548.28;7396816;19;20364;-56
2022/09/28 04:32:48;;;;;;;10.52;4.20;;;;;;;10.33;51.88;99548.69;7398752;19;20018;-56
2022/09/28 04:35:14;;;;;;;12.05;6.97;;;;;;;10.36;52.13;99550.69;7394312;19;20002;-56
2022/09/28 04:37:40;;;;;;;13.15;7.93;;;;;;;10.40;51.95;99550.75;7397387;19;20003;-57
2022/09/28 04:40:06;;;;;;;14.10;9.15;;;;;;;10.42;52.07;99542.19;7395966;19;20019;-56
2022/09/28 04:42:31;;;;;;;14.85;8.93;;;;;;;10.42;52.20;99542.19;7397845;19;20013;-56
2022/09/28 04:44:57;;;;;;;14.20;9.02;;;;;;;10.44;52.02;99548.84;7397263;19;20005;-56
2022/09/28 04:47:24;;;;;;;15.38;8.50;;;;;;;10.47;52.20;99537.22;7398172;19;19999;-56
2022/09/28 04:49:49;;;;;;;14.20;7.45;;;;;;;10.50;52.04;99538.41;7397185;19;20347;-56
2022/09/28 04:52:15;;;;;;;12.23;7.25;;;;;;;10.52;51.95;99547.78;7395070;19;20001;-56
2022/09/28 04:54:40;;;;;;;13.00;7.40;;;;;;;10.46;52.05;99545.75;7397421;19;20628;-56
2022/09/28 04:57:06;;;;;;;12.05;7.82;;;;;;;10.45;52.09;99544.19;7395894;19;19994;-56
2022/09/28 04:59:32;;;;;;;13.88;7.45;;;;;;;10.40;52.07;99544.50;7398315;19;19998;-56
2022/09/28 05:01:57;;;;;;;13.45;7.78;;;;;;;10.35;52.49;99543.69;7395956;19;19999;-56
2022/09/28 05:04:23;;;;;;;12.48;7.80;;;;;;;10.36;52.46;99545.25;7397204;19;20347;-56
2022/09/28 05:06:49;;;;;;;13.35;6.85;;;;;;;10.37;52.47;99540.59;7397839;19;19998;-56
2022/09/28 05:09:14;;;;;;;17.25;7.63;;;;;;;10.48;52.14;99540.72;7397918;19;20523;-56
2022/09/28 05:11:40;;;;;;;11.82;6.75;;;;;;;10.31;52.14;99548.28;7394590;19;20003;-56
2022/09/28 05:14:06;;;;;;;14.07;7.72;;;;;;;10.40;52.19;99539.81;7396872;19;19999;-57
2022/09/28 05:16:32;;;;;;;12.82;6.90;;;;;;;10.44;51.99;99545.34;7397269;19;20094;-56
2022/09/28 05:18:58;;;;;;;14.60;7.18;;;;;;;10.37;52.00;99546.81;7395804;19;20515;-57
2022/09/28 05:21:25;;;;;;;11.98;6.25;;;;;;;10.35;51.85;99543.69;7393794;19;20300;-56
2022/09/28 05:23:51;;;;;;;11.63;6.78;;;;;;;10.30;52.34;99541.28;7396536;19;20018;-57
2022/09/28 05:26:18;;;;;;;12.15;6.38;;;;;;;10.28;52.27;99542.81;7396604;19;20002;-57
2022/09/28 05:28:43;;;;;;;11.80;6.30;;;;;;;10.45;51.92;99552.38;7396559;19;19995;-57
2022/09/28 05:31:09;;;;;;;11.55;5.93;;;;;;;10.36;52.00;99553.41;7392760;19;20006;-56
2022/09/28 05:33:35;;;;;;;11.48;6.05;;;;;;;10.42;51.88;99542.19;7395991;19;20462;-56
2022/09/28 05:36:00;;;;;;;12.93;5.85;;;;;;;10.48;51.79;99541.50;7397058;19;20313;-57
2022/09/28 05:38:27;;;;;;;9.38;5.28;;;;;;;10.46;51.55;99537.56;7394601;19;20455;-56
2022/09/28 05:40:52;;;;;;;9.65;4.78;;;;;;;10.46;51.75;99548.50;7394276;19;20009;-56
2022/09/28 05:43:18;;;;;;;12.55;5.25;;;;;;;10.40;51.80;99533.59;7395346;19;20476;-56
2022/09/28 05:45:43;;;;;;;8.20;3.97;;;;;;;10.29;51.62;99545.16;7396053;19;20011;-56
2022/09/28 05:48:09;;;;;;;8.45;4.05;;;;;;;10.33;51.80;99542.47;7394736;19;19994;-56
2022/09/28 05:50:35;;;;;;;8.18;3.42;;;;;;;10.34;51.45;99533.91;7394343;19;20787;-56
2022/09/28 05:53:03;;;;;;;7.43;2.90;;;;;;;10.40;51.09;99533.59;7395201;19;19999;-56
2022/09/28 05:55:29;;;;;;;5.78;2.67;;;;;;;10.32;51.39;99538.97;7395870;19;19994;-56
2022/09/28 05:57:59;;;;;;;6.78;2.75;;;;;;;10.35;51.13;99543.69;7396520;19;20360;-56
2022/09/28 06:00:26;;;;;;;5.45;2.33;;;;;;;10.46;51.22;99538.34;7392213;19;20082;-56
2022/09/28 06:03:00;;;;;;;4.47;2.53;;;;;;;10.50;50.97;99539.19;7392755;19;19998;-57
2022/09/28 06:05:26;;;;;;;;;;;;;;;10.38;51.38;99540.22;7392798;19;19995;-56
2022/09/28 06:07:55;;;;;;;6.50;2.75;;;;;;;10.44;51.40;99545.34;7393649;19;19935;-57
2022/09/28 06:10:20;;;;;;;7.03;2.60;;;;;;;10.42;51.42;99553.91;7391068;19;20002;-58
2022/09/28 06:12:47;;;;;;;4.47;2.00;;;;;;;10.33;51.42;99551.44;7391919;19;20016;-58
2022/09/28 06:15:14;;;;;;;6.18;2.30;;;;;;;10.42;51.22;99542.19;7391642;19;20037;-58
2022/09/28 06:17:40;;;;;;;7.18;2.78;;;;;;;10.32;51.63;99555.34;7394574;19;20003;-58
2022/09/28 06:20:06;;;;;;;7.18;2.30;;;;;;;10.40;51.52;99549.97;7393158;19;19999;-58
2022/09/28 06:22:31;;;;;;;4.80;2.47;;;;;;;10.37;51.54;99551.50;7394890;19;20323;-58
2022/09/28 06:24:57;;;;;;;4.47;2.28;;;;;;;10.45;51.49;99558.63;7392307;19;19991;-58
2022/09/28 06:27:22;;;;;;;6.00;2.20;;;;;;;10.38;51.39;99559.31;7393713;19;20038;-58
2022/09/28 06:29:48;;;;;;;3.17;1.65;;;;;;;10.35;51.47;99554.59;7392659;19;20509;-57
2022/09/28 06:32:14;;;;;;;4.07;1.77;;;;;;;10.36;51.08;99561.59;7392169;19;19997;-58
2022/09/28 06:34:40;;;;;;;4.93;1.63;;;;;;;10.37;50.99;99563.19;7393409;19;20006;-57
2022/09/28 06:37:06;;;;;;;3.17;1.60;;;;;;;10.39;51.09;99571.00;7393676;19;19998;-57
2022/09/28 06:39:32;;;;;;;3.78;1.70;;;;;;;10.34;51.07;99569.38;7391499;19;20009;-58
2022/09/28 06:42:03;;;;;;;3.78;1.40;;;;;;;10.38;51.28;99577.59;7388063;19;20351;-57
2022/09/28 06:44:30;;;;;;;3.50;1.90;;;;;;;10.40;51.30;99577.25;7393839;19;20006;-57
2022/09/28 06:46:55;;;;;;;6.05;2.40;;;;;;;10.37;51.25;99574.09;7391958;19;20010;-57
2022/09/28 06:49:21;;;;;;;5.25;2.10;;;;;;;10.44;51.17;99584.31;7393684;19;20006;-57
2022/09/28 06:51:47;;;;;;;6.07;2.33;;;;;;;10.47;51.26;99588.22;7392046;19;20349;-58
2022/09/28 06:54:13;;;;;;;5.75;2.38;;;;;;;10.45;51.24;99585.91;7391689;19;20007;-56
2022/09/28 06:56:38;;;;;;;7.18;2.33;;;;;;;10.40;51.37;99579.97;7392273;19;20388;-57
2022/09/28 06:59:04;;;;;;;5.53;2.40;;;;;;;10.47;51.43;99588.22;7394562;19;20002;-57
2022/09/28 07:01:30;;;;;;;6.20;2.20;;;;;;;10.50;51.23;99592.94;7391569;19;20026;-57
2022/09/28 07:03:56;;;;;;;4.72;1.83;;;;;;;10.53;51.19;99592.22;7393717;19;19999;-57
2022/09/28 07:06:23;;;;;;;5.03;1.73;;;;;;;10.66;50.87;99585.38;7393329;19;19995;-57
2022/09/28 07:08:49;;;;;;;4.57;1.83;;;;;;;10.63;50.76;99590.78;7393427;19;20006;-58
2022/09/28 07:11:15;;;;;;;5.07;1.73;;;;;;;10.62;50.89;99590.00;7390951;19;20006;-57
2022/09/28 07:13:40;;;;;;;2.78;1.55;;;;;;;10.65;50.70;99593.94;7393370;19;20496;-57
2022/09/28 07:16:06;;;;;;;4.60;1.90;;;;;;;10.72;50.67;99588.56;7392000;19;20010;-57
2022/09/28 07:18:31;;;;;;;6.43;2.00;;;;;;;10.82;50.72;99587.94;7392481;19;20006;-58
2022/09/28 07:20:58;;;;;;;3.67;1.70;;;;;;;10.87;50.42;99595.00;7390982;19;20408;-57
2022/09/28 07:23:28;;;;;;;3.85;1.83;;;;;;;10.94;50.27;99603.28;7392072;19;20009;-57
2022/09/28 07:25:54;;;;;;;5.47;1.90;;;;;;;11.00;50.31;99604.50;7392823;19;20451;-57
2022/09/28 07:28:20;;;;;;;5.10;2.22;;;;;;;10.99;50.40;99608.41;7393186;19;20009;-57
2022/09/28 07:30:46;;;;;;;5.28;1.80;;;;;;;11.07;50.01;99606.53;7391837;19;19998;-57
2022/09/28 07:33:14;;;;;;;8.02;2.85;;;;;;;11.08;49.82;99605.38;7390987;19;19995;-57
2022/09/28 07:35:41;;;;;;;4.80;2.25;;;;;;;11.04;50.15;99615.47;7391833;19;20010;-58
2022/09/28 07:38:08;;;;;;;4.97;2.33;;;;;;;11.05;49.91;99612.34;7391852;19;20031;-57
2022/09/28 07:43:19;;;;;;;6.55;2.88;;;;;;;11.17;50.14;99616.00;7392184;19;19991;-59
2022/09/28 07:45:47;;;;;;;8.50;2.83;;;;;;;11.08;50.35;99610.84;7391755;19;20002;-58
2022/09/28 07:48:17;;;;;;;6.13;2.90;;;;;;;11.10;50.50;99617.50;7392080;19;20022;-56
2022/09/28 07:50:51;;;;;;;7.53;3.30;;;;;;;11.23;49.93;99618.00;7388017;19;20019;-56
2022/09/28 07:53:21;;;;;;;7.47;3.25;;;;;;;11.20;50.17;99626.94;7389709;19;20461;-56
2022/09/28 07:55:55;;;;;;;8.63;3.35;;;;;;;11.22;50.16;99621.13;7390770;19;19998;-56
2022/09/28 07:58:21;;;;;;;7.40;3.08;;;;;;;11.21;50.05;99623.06;7391659;19;20019;-56
2022/09/28 08:00:47;;;;;;;7.30;2.97;;;;;;;11.31;50.21;99624.34;7391081;19;20010;-57
2022/09/28 08:03:18;;;;;;;6.28;2.88;;;;;;;11.34;50.11;99623.59;7390206;19;19999;-56
2022/09/28 08:05:45;;;;;;;8.63;4.07;;;;;;;11.38;49.96;99629.88;7392352;19;19999;-55
2022/09/28 08:08:11;;;;;;;7.90;3.75;;;;;;;11.36;50.12;99629.47;7391023;19;20009;-56
2022/09/28 08:10:36;;;;;;;8.07;3.67;;;;;;;11.38;50.20;99634.56;7389392;19;20007;-56
2022/09/28 08:13:03;;;;;;;10.10;4.28;;;;;;;11.32;50.45;99636.06;7390891;19;19998;-56
2022/09/28 08:15:35;;;;;;;9.45;3.80;;;;;;;11.22;50.22;99632.84;7389127;19;20014;-57
2022/09/28 08:18:05;;;;;;;10.00;5.20;;;;;;;11.16;50.51;99634.34;7388860;19;20007;-57
2022/09/28 08:23:15;;;;;;;9.93;5.03;;;;;;;11.48;49.95;99639.34;7391256;19;20032;-56
2022/09/28 08:25:49;;;;;;;9.40;5.00;;;;;;;11.54;49.72;99645.25;7391707;19;20007;-57
2022/09/28 08:28:18;;;;;;;10.27;4.55;;;;;;;11.63;49.53;99643.00;7390781;19;20018;-57
2022/09/28 08:30:45;;;;;;;10.73;4.88;;;;;;;11.55;49.59;99649.56;7387924;19;20006;-56
2022/09/28 08:33:12;;;;;;;11.10;5.68;;;;;;;11.47;50.09;99645.97;7391782;19;19999;-56
2022/09/28 08:35:39;;;;;;;20.90;12.60;;;;;;;11.42;50.12;99652.56;7391289;19;20010;-57
2022/09/28 08:38:08;;;;;;;17.58;10.35;;;;;;;11.39;50.01;99650.59;7388908;19;20003;-57
2022/09/28 08:40:47;;;;;;;17.17;9.70;;;;;;;11.47;50.16;99657.69;7390520;19;20026;-56
2022/09/28 08:43:50;;;;;;;14.77;8.85;;;;;;;11.55;49.74;99661.25;7391146;19;20003;-56
2022/09/28 08:46:19;;;;;;;15.43;9.27;;;;;;;11.60;49.85;99663.66;7389390;19;20003;-56
2022/09/28 08:48:57;;;;;;;18.38;9.43;;;;;;;11.72;49.92;99662.59;7389715;19;20435;-56
2022/09/28 08:51:32;;;;;;;22.67;13.23;;;;;;;11.77;49.85;99666.94;7386510;19;20032;-56
2022/09/28 08:54:19;;;;;;;20.60;11.13;;;;;;;11.78;49.58;99663.03;7389521;19;20498;-56
2022/09/28 08:57:01;;;;;;;22.55;11.88;;;;;;;11.91;49.71;99671.78;7390317;19;20026;-56
2022/09/28 08:59:52;;;;;;;20.85;13.52;;;;;;;11.87;49.69;99676.44;7393592;19;20029;-56
2022/09/28 09:02:24;;;;;;;24.45;14.35;;;;;;;11.79;50.09;99673.59;7387317;19;20001;-56
2022/09/28 09:04:51;;;;;;;24.65;15.23;;;;;;;11.87;50.11;99681.91;7392892;19;20006;-56
2022/09/28 09:07:29;;;;;;;23.55;15.48;;;;;;;11.89;50.24;99685.84;7398058;19;20002;-57
2022/09/28 09:10:11;;;;;;;25.08;15.90;;;;;;;11.71;49.66;99682.13;7397381;19;20003;-57
2022/09/28 09:12:42;;;;;;;26.42;17.05;;;;;;;11.68;50.03;99692.63;7396293;19;19998;-58
2022/09/28 09:15:27;;;;;;;28.10;17.15;;;;;;;11.90;49.60;99690.13;7396468;19;20488;-57
2022/09/28 09:18:25;;;;;;;31.02;17.95;;;;;;;12.06;49.21;99689.88;7394836;19;20008;-56
2022/09/28 09:21:04;;;;;;;31.95;19.17;;;;;;;12.07;48.77;99696.91;7391255;19;20003;-57
2022/09/28 09:23:54;;;;;;;32.03;20.65;;;;;;;12.09;49.20;99700.06;7397366;19;19994;-56
2022/09/28 09:26:25;;;;;;;33.72;22.40;;;;;;;12.17;49.03;99693.50;7396644;19;20066;-56
2022/09/28 09:29:07;;;;;;;39.55;25.92;;;;;;;12.18;48.58;99700.50;7396223;19;20016;-55
2022/09/28 09:31:55;;;;;;;39.28;25.27;;;;;;;12.10;48.29;99698.88;7391687;19;20012;-56
2022/09/28 09:34:30;;;;;;;42.60;27.60;;;;;;;12.03;49.17;99702.34;7396976;19;20505;-56
2022/09/28 09:37:41;;;;;;;38.92;25.08;;;;;;;12.23;48.40;99710.31;7394381;19;20023;-57
2022/09/28 09:40:07;;;;;;;35.45;23.48;;;;;;;12.49;48.12;99700.34;7394014;19;20005;-57
2022/09/28 09:42:44;;;;;;;41.30;25.20;;;;;;;12.65;47.53;99702.78;7393818;19;19995;-57
2022/09/28 09:45:25;;;;;;;39.50;23.83;;;;;;;12.82;47.50;99707.56;7396403;19;20044;-57
2022/09/28 09:48:06;;;;;;;39.83;24.08;;;;;;;12.90;47.01;99703.72;7396141;19;19999;-57
2022/09/28 09:50:46;;;;;;;43.28;25.25;;;;;;;12.86;47.38;99702.91;7395138;19;20334;-56
2022/09/28 09:53:43;;;;;;;46.35;26.77;;;;;;;12.90;47.37;99709.22;7396454;19;19998;-57
2022/09/28 09:56:21;;;;;;;44.63;26.20;;;;;;;12.92;46.67;99709.59;7395976;19;20013;-57
2022/09/28 09:58:52;;;;;;;42.08;25.67;;;;;;;12.92;46.88;99715.09;7395488;19;20018;-57
2022/09/28 10:01:24;;;;;;;45.80;26.75;;;;;;;12.85;46.82;99708.78;7394271;19;20062;-57
2022/09/28 10:03:50;;;;;;;47.72;27.33;;;;;;;12.83;46.94;99709.16;7394167;19;20007;-57
2022/09/28 10:06:25;;;;;;;47.60;27.65;;;;;;;13.06;46.47;99708.09;7394019;19;20003;-57
2022/09/28 10:09:04;;;;;;;47.75;27.40;;;;;;;13.28;46.50;99712.50;7393260;19;20466;-57
2022/09/28 10:11:38;;;;;;;46.97;26.83;;;;;;;13.19;46.66;99712.06;7391469;19;20007;-57
2022/09/28 10:14:07;;;;;;;41.88;25.58;;;;;;;13.18;46.61;99717.97;7394568;19;20002;-57
2022/09/28 10:16:34;;;;;;;37.70;22.83;;;;;;;13.11;46.30;99711.28;7389027;19;20015;-58
2022/09/28 10:19:00;;;;;;;37.72;23.98;;;;;;;13.00;46.43;99706.91;7391760;19;20517;-57
2022/09/28 10:21:27;;;;;;;38.63;25.15;;;;;;;13.12;46.37;99710.09;7392670;19;20119;-58
2022/09/28 10:24:01;;;;;;;38.72;23.30;;;;;;;13.14;45.76;99716.00;7394715;19;20466;-58
2022/09/28 10:26:39;;;;;;;35.17;22.75;;;;;;;13.09;45.64;99715.56;7393685;19;20058;-57
2022/09/28 10:29:14;;;;;;;37.50;23.30;;;;;;;13.17;45.90;99717.16;7392857;19;20021;-58
2022/09/28 10:31:44;;;;;;;33.60;20.60;;;;;;;13.30;45.51;99712.91;7393152;19;19999;-57
2022/09/28 10:34:15;;;;;;;35.45;21.55;;;;;;;13.41;45.11;99715.69;7393923;19;20454;-58
2022/09/28 10:36:59;;;;;;;36.20;21.92;;;;;;;13.43;44.72;99718.03;7393490;19;20006;-58
2022/09/28 10:39:28;;;;;;;32.42;20.98;;;;;;;13.39;45.10;99717.25;7392349;19;20463;-58
2022/09/28 10:41:55;;;;;;;37.42;21.83;;;;;;;13.36;45.24;99718.00;7391830;19;20028;-57
2022/09/28 10:44:21;;;;;;;33.72;21.35;;;;;;;13.20;45.70;99724.63;7393884;19;20409;-58
2022/09/28 10:47:08;;;;;;;34.28;21.63;;;;;;;13.25;44.28;99729.72;7392961;19;20019;-58
2022/09/28 10:49:47;;;;;;;32.90;20.63;;;;;;;13.15;45.26;99719.50;7393688;19;20066;-57
2022/09/28 10:52:44;;;;;;;31.85;20.50;;;;;;;13.08;44.62;99719.47;7391091;19;20003;-57
2022/09/28 10:55:31;;;;;;;28.08;18.42;;;;;;;13.21;44.64;99715.22;7393773;19;19998;-57
2022/09/28 10:58:00;;;;;;;25.33;15.55;;;;;;;13.29;44.73;99721.50;7392367;19;20680;-58
2022/09/28 11:00:41;;;;;;;25.33;15.13;;;;;;;13.48;44.38;99720.41;7390394;19;20075;-58
2022/09/28 11:03:23;;;;;;;32.28;19.85;;;;;;;13.80;44.08;99725.19;7394075;19;19995;-57
2022/09/28 11:06:07;;;;;;;26.67;16.75;;;;;;;13.93;43.09;99718.16;7393224;19;19986;-57
2022/09/28 11:08:35;;;;;;;;;;;;;;;14.02;42.30;99717.78;7392898;19;20081;-57
2022/09/28 11:11:12;;;;;;;26.75;15.23;;;;;;;14.22;42.87;99718.19;7391955;19;19911;-57
2022/09/28 11:13:41;;;;;;;23.92;13.38;;;;;;;14.32;42.65;99724.84;7394141;19;20030;-58
2022/09/28 11:16:07;;;;;;;26.67;16.13;;;;;;;14.28;42.85;99724.84;7390919;19;20021;-58
2022/09/28 11:18:33;;;;;;;25.92;15.80;;;;;;;14.34;42.48;99715.03;7392500;19;20006;-57
2022/09/28 11:21:17;;;;;;;26.10;16.05;;;;;;;14.53;42.08;99721.28;7391374;19;20093;-58
2022/09/28 11:24:00;;;;;;;21.60;14.45;;;;;;;14.61;42.26;99720.88;7392758;19;20566;-59
2022/09/28 11:26:27;;;;;;;25.92;16.05;;;;;;;14.50;42.09;99722.09;7392537;19;20003;-57
2022/09/28 11:28:52;;;;;;;22.38;13.18;;;;;;;14.35;42.41;99716.59;7393851;19;20009;-57
2022/09/28 11:31:27;;;;;;;23.38;13.20;;;;;;;14.27;42.46;99717.78;7391278;19;20302;-57
2022/09/28 11:34:13;;;;;;;19.98;11.90;;;;;;;14.28;42.41;99726.78;7392404;19;20006;-57
2022/09/28 11:37:08;;;;;;;18.15;10.45;;;;;;;14.10;41.81;99718.59;7390577;19;20073;-57
2022/09/28 11:39:57;;;;;;;17.80;10.63;;;;;;;14.12;42.37;99722.47;7389602;19;20518;-57
2022/09/28 11:42:45;;;;;;;15.45;9.73;;;;;;;13.92;41.80;99716.59;7391081;19;20074;-58
2022/09/28 11:45:28;;;;;;;22.55;11.02;;;;;;;13.88;42.26;99724.03;7393104;19;19999;-58
2022/09/28 11:48:04;;;;;;;15.40;10.10;;;;;;;13.76;42.72;99727.91;7392411;19;20003;-57
2022/09/28 11:50:41;;;;;;;18.02;10.35;;;;;;;13.81;42.69;99721.25;7390469;19;20323;-57
2022/09/28 11:53:17;;;;;;;19.02;11.80;;;;;;;13.78;42.77;99733.78;7392136;19;19995;-58
2022/09/28 11:55:48;;;;;;;21.48;14.32;;;;;;;13.76;43.10;99735.34;7392503;19;20014;-58
2022/09/28 11:58:21;;;;;;;20.70;14.68;;;;;;;13.76;43.30;99735.34;7391541;19;20006;-57